Time;durP1;ratioP1;P1;durP2;ratioP2;P2;SDS_P1;SDS_P2;PMS_P1;PMS_P2;Temp;Humidity;BMP_temperature;BMP_pressure;BME280_temperature;BME280_humidity;BME280_pressure;Samples;Min_cycle;Max_cycle;Signal;HPM_P1;HPM_P2
2022/05/16 00:00:52;;;;;;;12.83;8.20;;;16.60;96.10;;;16.78;65.23;95324.53;5065574;28;20505;-55
2022/05/16 00:03:19;;;;;;;9.60;7.30;;;16.50;96.00;;;16.73;65.28;95322.38;5066537;28;20551;-54
2022/05/16 00:05:46;;;;;;;9.70;7.60;;;16.50;96.10;;;16.71;65.41;95319.03;5067658;28;20470;-56
2022/05/16 00:08:13;;;;;;;12.60;8.63;;;16.50;96.10;;;16.66;65.28;95314.22;5065977;28;20465;-55
2022/05/16 00:10:41;;;;;;;7.73;6.93;;;16.40;96.10;;;16.64;65.38;95318.06;5067682;28;20491;-55
2022/05/16 00:13:08;;;;;;;9.97;7.60;;;16.40;96.10;;;16.61;65.25;95315.75;5066788;28;20459;-56
2022/05/16 00:15:35;;;;;;;10.10;7.50;;;16.40;96.10;;;16.56;65.29;95310.09;5065592;28;20959;-54
2022/05/16 00:18:05;;;;;;;13.83;7.83;;;16.30;96.20;;;16.54;65.24;95309.44;5063002;28;20556;-56
2022/05/16 00:20:32;;;;;;;8.53;7.70;;;16.30;96.20;;;16.53;65.50;95319.22;5066263;28;20515;-55
2022/05/16 00:22:59;;;;;;;8.00;7.23;;;16.20;96.30;;;16.52;65.61;95316.75;5067416;28;20451;-55
2022/05/16 00:25:27;;;;;;;12.17;7.40;;;16.30;96.30;;;16.48;65.64;95317.06;5067347;28;20483;-56
2022/05/16 00:27:54;;;;;;;14.27;8.63;;;16.20;96.40;;;16.45;65.85;95312.09;5066351;28;20811;-54
2022/05/16 00:30:22;;;;;;;11.90;8.50;;;16.20;96.60;;;16.44;65.88;95309.59;5067947;28;20486;-55
2022/05/16 00:32:49;;;;;;;11.53;8.63;;;16.20;96.60;;;16.42;65.80;95308.91;5064731;28;20454;-55
2022/05/16 00:35:21;;;;;;;8.03;7.27;;;16.20;96.50;;;16.39;65.68;95304.78;5064834;28;20487;-55
2022/05/16 00:37:48;;;;;;;11.27;7.27;;;16.10;96.60;;;16.37;65.78;95312.06;5067264;28;20544;-57
2022/05/16 00:40:15;;;;;;;8.43;7.63;;;16.10;96.60;;;16.36;65.94;95307.78;5069827;28;20622;-54
2022/05/16 00:42:43;;;;;;;16.27;7.83;;;16.10;96.70;;;16.35;65.96;95308.75;5069771;28;20459;-55
2022/05/16 00:45:11;;;;;;;9.47;7.70;;;16.10;96.60;;;16.31;66.00;95308.25;5063917;28;20482;-54
2022/05/16 00:47:39;;;;;;;15.90;8.53;;;16.10;96.70;;;16.26;65.77;95310.56;5063863;28;20462;-56
2022/05/16 00:50:08;;;;;;;8.23;7.43;;;16.00;96.50;;;16.22;66.14;95303.94;5063703;28;20983;-55
2022/05/16 00:52:39;;;;;;;7.97;7.37;;;16.00;96.60;;;16.21;66.31;95302.28;5063751;28;20458;-55
2022/05/16 00:55:10;;;;;;;7.77;7.00;;;16.00;96.90;;;16.19;66.21;95304.28;5068820;28;20929;-56
2022/05/16 00:57:39;;;;;;;7.57;6.87;;;16.00;96.90;;;16.18;66.46;95302.59;5062539;28;20460;-55
2022/05/16 01:00:09;;;;;;;10.80;7.47;;;15.90;97.10;;;16.17;66.29;95308.06;5063727;28;20520;-55
2022/05/16 01:05:23;;;;;;;8.43;7.60;;;15.90;97.00;;;16.14;66.37;95301.25;5063092;28;20489;-56
2022/05/16 01:07:51;;;;;;;10.03;7.13;;;15.90;97.00;;;16.13;66.32;95299.63;5067852;28;20989;-54
2022/05/16 01:10:21;;;;;;;8.00;7.20;;;15.90;96.90;;;16.10;66.12;95305.25;5064955;28;20982;-55
2022/05/16 01:12:51;;;;;;;8.67;6.43;;;15.90;96.70;;;16.07;65.95;95303.75;5064866;28;20504;-55
2022/05/16 01:15:27;;;;;;;6.70;6.10;;;15.80;96.70;;;16.06;66.21;95311.88;5062859;28;20491;-55
2022/05/16 01:17:55;;;;;;;8.30;6.63;;;15.80;96.80;;;16.03;66.06;95301.56;5064136;28;20466;-54
2022/05/16 01:20:22;;;;;;;8.90;6.37;;;15.80;96.70;;;16.01;66.30;95303.56;5065201;28;20605;-56
2022/05/16 01:22:51;;;;;;;10.53;7.07;;;15.80;96.80;;;16.00;66.03;95313.34;5064305;28;21010;-55
2022/05/16 01:25:22;;;;;;;12.07;7.20;;;15.70;96.70;;;15.98;66.09;95309.19;5062525;28;21328;-54
2022/05/16 01:27:51;;;;;;;7.87;7.07;;;15.70;96.80;;;15.94;66.04;95304.22;5064837;28;20483;-55
2022/05/16 01:30:22;;;;;;;11.17;7.17;;;15.70;96.70;;;15.93;66.22;95304.38;5067339;28;20470;-54
2022/05/16 01:32:49;;;;;;;9.30;7.93;;;15.70;96.90;;;15.91;66.64;95306.34;5065602;28;21064;-56
2022/05/16 01:35:20;;;;;;;14.40;7.20;;;15.70;97.00;;;15.90;66.42;95302.06;5066759;28;20485;-54
2022/05/16 01:40:34;;;;;;;11.97;6.90;;;15.70;97.00;;;15.85;66.32;95307.84;5063944;28;20482;-55
2022/05/16 01:43:01;;;;;;;8.13;7.00;;;15.60;96.80;;;15.82;66.57;95302.88;5065704;28;20524;-55
2022/05/16 01:45:28;;;;;;;40.07;8.03;;;15.60;96.90;;;15.81;66.31;95305.66;5066386;28;20942;-55
2022/05/16 01:47:56;;;;;;;10.83;7.50;;;15.60;96.80;;;15.75;66.12;95315.91;5066367;28;20508;-56
2022/05/16 01:50:23;;;;;;;12.40;8.00;;;15.60;96.70;;;15.72;66.06;95312.72;5066651;28;20479;-56
2022/05/16 01:52:50;;;;;;;11.97;6.70;;;15.50;96.90;;;15.68;66.16;95309.56;5064553;28;20486;-55
2022/05/16 01:55:18;;;;;;;9.47;6.87;;;15.50;96.70;;;15.65;66.04;95312.56;5064607;28;20501;-55
2022/05/16 01:57:46;;;;;;;7.30;6.60;;;15.40;96.60;;;15.63;65.95;95309.25;5066163;28;20583;-55
2022/05/16 02:00:15;;;;;;;11.77;6.87;;;15.40;96.60;;;15.60;66.06;95309.56;5067071;28;20479;-55
2022/05/16 02:02:43;;;;;;;8.63;7.60;;;15.40;96.50;;;15.55;66.21;95317.16;5064199;28;20459;-54
2022/05/16 02:05:10;;;;;;;10.67;7.70;;;15.30;96.60;;;15.52;66.39;95317.47;5065783;28;20537;-55
2022/05/16 02:07:38;;;;;;;14.17;8.70;;;15.30;96.70;;;15.48;66.21;95316.97;5065188;28;20954;-54
2022/05/16 02:10:07;;;;;;;10.63;9.00;;;15.20;96.70;;;15.44;66.12;95312.13;5064576;28;20957;-56
2022/05/16 02:12:34;;;;;;;12.43;8.73;;;15.20;96.70;;;15.41;66.31;95315.91;5065378;28;20493;-55
2022/05/16 02:15:03;;;;;;;11.03;9.93;;;15.20;96.90;;;15.38;66.87;95319.75;5066198;28;20495;-55
2022/05/16 02:17:30;;;;;;;17.17;9.43;;;15.20;97.00;;;15.37;66.44;95314.59;5067220;28;20467;-55
2022/05/16 02:19:57;;;;;;;12.50;9.07;;;15.10;96.90;;;15.34;66.51;95318.38;5065960;28;20455;-56
2022/05/16 02:25:10;;;;;;;10.10;8.60;;;15.10;96.90;;;15.30;66.41;95319.69;5064126;28;22313;-53
2022/05/16 02:27:37;;;;;;;9.43;8.63;;;15.10;97.00;;;15.29;66.66;95322.47;5063941;28;20467;-55
2022/05/16 02:30:07;;;;;;;10.43;9.13;;;15.10;97.30;;;15.26;66.56;95313.06;5064021;28;20478;-55
2022/05/16 02:32:35;;;;;;;11.47;8.50;;;15.00;96.90;;;15.23;66.83;95308.06;5064530;28;21225;-55
2022/05/16 02:35:02;;;;;;;19.67;8.57;;;15.00;96.90;;;15.23;66.47;95313.38;5064353;28;20571;-56
2022/05/16 02:37:30;;;;;;;9.80;8.13;;;15.00;96.90;;;15.20;66.59;95314.50;5065209;28;20455;-56
2022/05/16 02:39:57;;;;;;;11.07;8.83;;;15.00;96.90;;;15.17;66.77;95308.69;5062279;28;20512;-55
2022/05/16 02:42:24;;;;;;;13.37;8.30;;;14.90;96.90;;;15.15;66.91;95314.16;5055896;28;20988;-56
2022/05/16 02:44:52;;;;;;;13.53;9.37;;;14.90;97.20;;;15.14;67.18;95314.31;5066070;28;20954;-55
2022/05/16 02:47:22;;;;;;;14.60;9.50;;;14.90;97.40;;;15.15;67.47;95314.16;5066579;28;20509;-56
2022/05/16 02:49:50;;;;;;;16.50;8.90;;;14.90;97.60;;;15.15;67.07;95319.44;5068784;28;20451;-57
2022/05/16 02:52:17;;;;;;;8.60;7.63;;;14.90;97.40;;;15.15;67.72;95308.00;5067440;28;20508;-55
2022/05/16 02:54:44;;;;;;;12.23;9.60;;;14.90;97.70;;;15.16;67.42;95314.97;5068669;28;20466;-55
2022/05/16 02:57:12;;;;;;;13.43;8.60;;;14.90;97.70;;;15.18;67.22;95310.34;5063193;28;20490;-54
2022/05/16 02:59:39;;;;;;;9.47;8.33;;;15.00;97.70;;;15.18;67.51;95316.50;5071962;28;20454;-56
2022/05/16 03:02:08;;;;;;;9.83;8.37;;;15.00;97.70;;;15.18;67.65;95313.84;5070510;28;21075;-55
2022/05/16 03:04:37;;;;;;;13.53;9.10;;;15.00;97.70;;;15.20;67.42;95318.97;5067550;28;20894;-54
2022/05/16 03:07:05;;;;;;;10.10;9.00;;;15.00;97.80;;;15.20;67.58;95319.81;5067853;28;20914;-54
2022/05/16 03:09:33;;;;;;;10.80;8.17;;;15.00;97.70;;;15.21;67.54;95325.91;5067746;28;20530;-54
2022/05/16 03:12:00;;;;;;;16.20;8.23;;;15.00;97.70;;;15.22;67.66;95325.75;5066287;28;20485;-53
2022/05/16 03:14:27;;;;;;;13.80;8.27;;;15.00;97.80;;;15.23;67.55;95334.56;5067886;28;20818;-56
2022/05/16 03:16:54;;;;;;;14.20;6.97;;;15.00;97.70;;;15.24;67.12;95329.09;5066997;28;20550;-56
2022/05/16 03:19:22;;;;;;;11.70;7.40;;;15.00;97.50;;;15.25;67.08;95335.22;5068048;28;21014;-57
2022/05/16 03:21:50;;;;;;;8.50;7.60;;;15.00;97.20;;;15.25;66.80;95335.22;5067279;28;20848;-56
2022/05/16 03:24:18;;;;;;;12.83;7.50;;;15.00;97.10;;;15.24;66.51;95336.22;5066617;28;20459;-56
2022/05/16 03:26:45;;;;;;;13.77;8.00;;;15.00;96.90;;;15.24;66.71;95344.16;5072607;28;20478;-55
2022/05/16 03:29:13;;;;;;;11.50;8.33;;;15.00;96.90;;;15.22;66.62;95338.19;5066513;28;20459;-55
2022/05/16 03:31:41;;;;;;;8.60;7.70;;;15.00;96.90;;;15.24;66.66;95346.81;5068571;28;20668;-55
2022/05/16 03:34:09;;;;;;;13.20;8.20;;;15.00;96.90;;;15.22;66.44;95354.91;5067749;28;20458;-55
2022/05/16 03:36:36;;;;;;;11.37;7.40;;;15.00;96.90;;;15.21;66.32;95352.41;5067892;28;20486;-56
2022/05/16 03:41:50;;;;;;;10.40;7.00;;;15.00;96.70;;;15.16;66.34;95362.66;5068752;28;21052;-55
2022/05/16 03:44:20;;;;;;;12.97;7.43;;;14.90;96.80;;;15.15;66.40;95356.53;5066843;28;20459;-56
2022/05/16 03:46:48;;;;;;;10.63;7.27;;;15.00;96.90;;;15.18;66.53;95358.03;5065350;28;20478;-56
2022/05/16 03:49:15;;;;;;;9.70;6.70;;;14.90;96.90;;;15.21;66.33;95363.88;5067900;28;20466;-54
2022/05/16 03:51:42;;;;;;;10.40;7.40;;;15.00;96.90;;;15.27;66.52;95366.88;5066722;28;20553;-55
2022/05/16 03:54:11;;;;;;;12.33;7.33;;;15.00;96.90;;;15.32;66.04;95377.81;5066906;28;20455;-56
2022/05/16 03:56:38;;;;;;;11.73;7.50;;;15.10;96.90;;;15.34;66.24;95374.03;5067173;28;20503;-54
2022/05/16 03:59:05;;;;;;;8.03;7.33;;;15.10;96.80;;;15.37;66.08;95386.97;5064955;28;20439;-56
2022/05/16 04:01:33;;;;;;;6.20;5.80;;;15.10;96.80;;;15.39;65.99;95382.34;5065205;28;20469;-58
2022/05/16 04:04:00;;;;;;;16.43;6.03;;;15.10;96.60;;;15.42;65.98;95378.56;5066684;28;20451;-55
2022/05/16 04:06:28;;;;;;;9.43;6.03;;;15.20;96.70;;;15.47;65.75;95386.03;5067493;28;21044;-55
2022/05/16 04:08:55;;;;;;;10.03;6.50;;;15.20;96.60;;;15.51;65.91;95390.88;5065817;28;20458;-55
2022/05/16 04:11:23;;;;;;;8.47;5.30;;;15.30;96.60;;;15.55;65.79;95391.38;5066028;28;21010;-55
2022/05/16 04:13:51;;;;;;;10.30;7.03;;;15.30;96.70;;;15.59;65.71;95388.25;5066824;28;20451;-57
2022/05/16 04:16:18;;;;;;;12.07;6.43;;;15.30;96.50;;;15.63;65.50;95387.94;5064417;28;20999;-59
2022/05/16 04:18:46;;;;;;;7.60;6.63;;;15.40;96.40;;;15.65;65.76;95392.09;5065544;28;20451;-60
2022/05/16 04:21:13;;;;;;;9.93;7.33;;;15.40;96.60;;;15.69;65.53;95393.47;5069599;28;21030;-55
2022/05/16 04:23:41;;;;;;;9.00;7.80;;;15.40;96.50;;;15.74;65.64;95391.16;5064762;28;20490;-59
2022/05/16 04:26:08;;;;;;;16.77;7.40;;;15.50;96.80;;;15.78;65.56;95383.72;5065289;28;20502;-58
2022/05/16 04:28:37;;;;;;;11.40;7.73;;;15.50;96.40;;;15.80;65.47;95389.72;5065794;28;20451;-58
2022/05/16 04:31:04;;;;;;;8.80;8.00;;;15.50;96.40;;;15.82;65.47;95387.75;5065569;28;20478;-58
2022/05/16 04:33:33;;;;;;;19.97;8.40;;;15.60;96.40;;;15.87;65.26;95395.22;5064893;28;20442;-57
2022/05/16 04:36:01;;;;;;;10.13;7.80;;;15.60;96.40;;;15.93;65.46;95402.53;5070325;28;20517;-57
2022/05/16 04:38:28;;;;;;;9.93;7.93;;;15.60;96.40;;;15.99;65.37;95401.91;5062816;28;20470;-56
2022/05/16 04:43:41;;;;;;;15.60;9.00;;;15.80;96.60;;;16.12;65.12;95394.28;5066107;28;21005;-57
2022/05/16 04:46:09;;;;;;;12.63;9.00;;;15.90;96.30;;;16.22;64.84;95396.84;5065459;28;20474;-56
2022/05/16 04:48:36;;;;;;;29.67;10.43;;;15.90;96.10;;;16.30;64.79;95406.66;5062238;28;20455;-56
2022/05/16 04:51:04;;;;;;;23.93;9.80;;;16.00;96.10;;;16.37;64.91;95402.31;5063434;28;20471;-57
2022/05/16 04:53:31;;;;;;;14.83;9.13;;;16.00;96.00;;;16.44;64.56;95413.16;5062609;28;20451;-58
2022/05/16 04:55:58;;;;;;;19.63;9.43;;;16.10;95.90;;;16.49;64.41;95411.66;5065436;28;20501;-58
2022/05/16 04:58:26;;;;;;;18.13;9.83;;;16.20;95.80;;;16.53;64.25;95403.34;5062850;28;20512;-56
2022/05/16 05:00:54;;;;;;;13.17;9.60;;;16.30;95.80;;;16.57;64.32;95410.00;5058774;28;21023;-57
2022/05/16 05:03:22;;;;;;;14.87;10.00;;;16.30;95.70;;;16.61;64.25;95406.03;5063733;28;20967;-55
2022/05/16 05:05:50;;;;;;;18.30;9.97;;;16.30;95.60;;;16.63;64.14;95406.69;5060166;28;20467;-59
2022/05/16 05:08:17;;;;;;;13.80;8.80;;;16.40;95.60;;;16.67;64.24;95413.34;5062555;28;20601;-56
2022/05/16 05:16:17;;;;;;;11.37;8.97;;;16.50;95.50;;;16.79;64.27;95417.34;5065105;28;20590;-54
2022/05/16 05:18:45;;;;;;;14.90;7.73;;;16.50;95.40;;;16.85;63.87;95424.66;5061901;28;20446;-57
2022/05/16 05:21:12;;;;;;;8.77;8.00;;;16.50;95.40;;;16.95;63.98;95423.72;5064981;28;20890;-57
2022/05/16 05:23:40;;;;;;;14.10;8.37;;;16.60;95.40;;;17.06;63.67;95428.69;5064646;28;20537;-55
2022/05/16 05:26:08;;;;;;;14.60;8.73;;;16.70;95.50;;;17.21;63.46;95426.16;5063602;28;21102;-58
2022/05/16 05:28:35;;;;;;;12.07;8.00;;;16.80;95.30;;;17.34;62.82;95425.69;5063819;28;20455;-57
2022/05/16 05:31:03;;;;;;;13.80;7.70;;;17.00;95.10;;;17.49;62.86;95425.81;5066199;28;20473;-57
2022/05/16 05:33:31;;;;;;;8.97;8.07;;;17.10;94.80;;;17.64;62.65;95426.78;5060453;28;20543;-56
2022/05/16 05:36:00;;;;;;;12.80;8.77;;;17.30;94.60;;;17.79;62.56;95434.91;5061670;28;20494;-57
2022/05/16 05:38:29;;;;;;;14.80;8.63;;;17.40;94.50;;;17.98;62.38;95428.38;5062086;28;20455;-54
2022/05/16 05:40:56;;;;;;;15.43;8.40;;;17.60;94.60;;;18.18;61.66;95428.78;5062830;28;20506;-54
2022/05/16 05:43:23;;;;;;;12.50;8.40;;;17.70;94.20;;;18.39;61.03;95428.22;5063751;28;20454;-54
2022/05/16 05:45:50;;;;;;;13.50;8.40;;;17.90;93.90;;;18.51;60.56;95423.28;5064270;28;20466;-57
2022/05/16 05:48:18;;;;;;;11.83;8.50;;;18.10;93.50;;;18.65;60.64;95429.72;5064942;28;20538;-57
2022/05/16 05:50:46;;;;;;;10.80;8.27;;;18.20;93.30;;;18.79;60.66;95422.78;5064180;28;20540;-57
2022/05/16 05:53:14;;;;;;;9.97;8.37;;;18.30;93.00;;;18.96;60.33;95421.72;5064793;28;20848;-57
2022/05/16 05:55:41;;;;;;;14.23;9.27;;;18.50;92.80;;;19.08;59.79;95426.63;5064886;28;20467;-59
2022/05/16 05:58:09;;;;;;;16.17;8.70;;;18.60;92.40;;;19.17;59.19;95418.38;5064530;28;20447;-55
2022/05/16 06:00:36;;;;;;;25.03;9.97;;;18.70;92.10;;;19.27;58.86;95428.81;5064878;28;20829;-56
2022/05/16 06:03:03;;;;;;;15.83;10.90;;;18.80;92.20;;;19.35;59.23;95430.56;5063723;28;20497;-56
2022/05/16 06:05:30;;;;;;;22.03;9.90;;;18.90;91.90;;;19.41;58.49;95423.66;5065531;28;20482;-54
2022/05/16 06:07:59;;;;;;;17.17;10.27;;;19.00;92.00;;;19.49;58.20;95426.28;5065711;28;20451;-54
2022/05/16 06:10:26;;;;;;;15.43;9.10;;;19.10;91.80;;;19.59;58.23;95437.50;5064939;28;20913;-55
2022/05/16 06:12:54;;;;;;;11.57;9.47;;;19.10;91.60;;;19.73;58.37;95435.88;5065236;28;20508;-55
2022/05/16 06:15:22;;;;;;;21.27;10.90;;;19.20;91.20;;;19.90;58.07;95439.22;5063706;28;20532;-55
2022/05/16 06:17:50;;;;;;;17.10;9.70;;;19.40;91.20;;;20.01;57.45;95427.25;5064605;28;20494;-56
2022/05/16 06:20:17;;;;;;;13.00;10.70;;;19.50;91.00;;;20.16;57.62;95428.06;5064244;28;20932;-56
2022/05/16 06:22:45;;;;;;;25.97;10.17;;;19.60;90.90;;;20.29;56.94;95427.41;5069042;28;20951;-55
2022/05/16 06:25:34;;;;;;;11.87;10.00;;;19.80;90.70;;;20.45;56.67;95431.72;5068559;28;21198;-56
2022/05/16 06:28:04;;;;;;;15.53;10.37;;;19.90;90.50;;;20.65;56.43;95425.78;5067061;28;20482;-56
2022/05/16 06:30:32;;;;;;;22.90;10.77;;;20.10;90.20;;;20.85;56.53;95428.69;5068532;28;20471;-55
2022/05/16 06:32:59;;;;;;;16.90;10.03;;;20.30;90.20;;;21.03;55.86;95429.06;5067233;28;20450;-55
2022/05/16 06:35:27;;;;;;;12.93;10.30;;;20.50;89.20;;;21.25;55.79;95432.56;5068335;28;20972;-55
2022/05/16 06:37:54;;;;;;;23.20;9.50;;;20.70;89.00;;;21.45;55.19;95432.72;5068175;28;20989;-56
2022/05/16 06:40:23;;;;;;;15.60;10.10;;;20.90;87.90;;;21.62;54.73;95421.78;5068628;28;20962;-55
2022/05/16 06:42:51;;;;;;;17.73;10.53;;;21.10;87.30;;;21.83;54.46;95429.75;5068619;28;20465;-55
2022/05/16 06:45:18;;;;;;;18.70;9.87;;;21.30;86.90;;;22.03;53.97;95429.06;5068646;28;20467;-56
2022/05/16 06:47:45;;;;;;;15.30;10.30;;;21.50;86.20;;;22.22;53.37;95430.16;5068507;28;20461;-54
2022/05/16 06:50:13;;;;;;;28.50;11.00;;;21.70;84.70;;;22.37;53.16;95427.41;5067847;28;20924;-55
2022/05/16 06:52:40;;;;;;;18.83;10.83;;;21.80;84.50;;;22.58;53.05;95426.44;5068329;28;20442;-56
2022/05/16 06:55:09;;;;;;;17.50;11.07;;;22.00;84.00;;;22.77;52.51;95435.56;5068181;28;20458;-56
2022/05/16 06:57:38;;;;;;;18.23;10.50;;;22.20;82.80;;;22.96;52.41;95422.41;5068027;28;20493;-55
2022/05/16 07:00:08;;;;;;;15.37;9.40;;;22.40;82.20;;;23.14;51.89;95421.84;5068237;28;20458;-56
2022/05/16 07:02:35;;;;;;;15.77;10.20;;;22.60;81.20;;;23.34;51.63;95422.69;5067643;28;20447;-56
2022/05/16 07:05:03;;;;;;;17.43;10.80;;;22.80;80.80;;;23.53;51.20;95431.78;5068151;28;20451;-55
2022/05/16 07:07:30;;;;;;;18.33;10.80;;;23.00;79.40;;;23.73;51.03;95429.06;5068649;28;20450;-56
2022/05/16 07:09:57;;;;;;;20.67;9.70;;;23.20;78.90;;;23.87;50.30;95429.91;5067954;28;20458;-57
2022/05/16 07:12:25;;;;;;;15.47;10.73;;;23.30;77.60;;;23.95;50.21;95424.31;5068169;28;20663;-55
2022/05/16 07:14:54;;;;;;;22.13;10.17;;;23.40;76.90;;;24.09;49.58;95419.75;5067768;28;20450;-57
2022/05/16 07:17:21;;;;;;;28.17;9.33;;;23.50;77.00;;;24.27;49.17;95419.06;5068169;28;20540;-55
2022/05/16 07:19:51;;;;;;;19.23;10.07;;;23.70;76.30;;;24.43;49.67;95414.25;5067579;28;20450;-56
2022/05/16 07:22:22;;;;;;;18.97;12.00;;;23.80;75.30;;;24.65;49.32;95422.88;5067939;28;20443;-56
2022/05/16 07:24:50;;;;;;;29.23;9.30;;;24.00;75.10;;;24.84;46.91;95410.34;5068488;28;20546;-56
2022/05/16 07:30:05;;;;;;;17.73;10.00;;;24.40;73.00;;;24.99;48.23;95415.47;5067955;28;20414;-56
2022/05/16 07:32:36;;;;;;;13.53;8.27;;;24.40;71.60;;;25.05;47.79;95414.56;5065959;28;20447;-55
2022/05/16 07:35:04;;;;;;;19.97;8.17;;;24.50;70.80;;;25.19;47.82;95404.53;5065223;28;20840;-56
2022/05/16 07:37:32;;;;;;;11.90;7.73;;;24.60;71.00;;;25.36;47.17;95405.69;5067265;28;21022;-55
2022/05/16 07:39:59;;;;;;;10.97;8.90;;;24.80;71.50;;;25.56;46.50;95405.53;5068299;28;20450;-55
2022/05/16 07:42:27;;;;;;;8.00;7.20;;;24.90;69.50;;;25.75;46.25;95405.56;5067720;28;20447;-55
2022/05/16 07:44:54;;;;;;;15.07;8.00;;;25.10;68.80;;;25.93;45.86;95404.75;5067896;28;20504;-55
2022/05/16 07:47:22;;;;;;;21.53;6.03;;;25.30;67.70;;;26.11;45.65;95407.50;5067631;28;20986;-55
2022/05/16 07:49:50;;;;;;;20.13;6.10;;;25.50;65.60;;;26.33;44.73;95414.31;5067577;28;20455;-55
2022/05/16 07:52:17;;;;;;;11.03;5.80;;;25.70;64.60;;;26.54;43.90;95410.31;5067641;28;20958;-56
2022/05/16 07:54:44;;;;;;;10.43;6.63;;;25.90;62.30;;;26.71;43.62;95408.69;5067257;28;20465;-55
2022/05/16 07:57:12;;;;;;;6.17;4.47;;;26.10;61.70;;;26.87;42.54;95406.41;5066953;28;20493;-54
2022/05/16 07:59:41;;;;;;;8.70;5.10;;;26.30;59.40;;;26.99;42.44;95405.41;5067165;28;20815;-56
2022/05/16 08:02:09;;;;;;;13.90;4.87;;;26.40;59.30;;;27.00;41.73;95408.91;5066523;28;20474;-55
2022/05/16 08:04:37;;;;;;;6.57;5.10;;;26.40;57.70;;;26.96;41.49;95407.75;5064434;28;20451;-55
2022/05/16 08:07:05;;;;;;;8.90;5.40;;;26.40;56.80;;;27.01;41.57;95399.75;5067579;28;20478;-58
2022/05/16 08:12:25;;;;;;;8.27;5.50;;;26.40;56.30;;;26.92;40.26;95398.44;5065779;28;20997;-56
2022/05/16 08:14:52;;;;;;;14.33;4.53;;;26.30;55.40;;;26.99;39.86;95396.47;5067337;28;20457;-57
2022/05/16 08:17:19;;;;;;;6.90;4.40;;;26.40;55.10;;;27.16;40.33;95393.94;5066946;28;20539;-55
2022/05/16 08:19:48;;;;;;;8.10;3.50;;;26.50;54.30;;;27.37;39.19;95392.59;5067088;28;20447;-56
2022/05/16 08:22:16;;;;;;;8.93;4.40;;;26.70;53.50;;;27.65;38.88;95401.91;5066845;28;20459;-55
2022/05/16 08:24:43;;;;;;;6.77;4.30;;;27.00;52.80;;;27.89;38.96;95395.44;5067250;28;20508;-59
2022/05/16 08:27:10;;;;;;;7.87;4.70;;;27.20;53.10;;;28.12;38.70;95401.94;5067203;28;20474;-56
2022/05/16 08:29:37;;;;;;;7.30;3.87;;;27.40;52.30;;;28.33;37.63;95399.66;5067421;28;20885;-56
2022/05/16 08:32:07;;;;;;;8.53;3.47;;;27.70;51.00;;;28.54;37.75;95392.78;5065819;28;20482;-56
2022/05/16 08:34:34;;;;;;;5.47;3.87;;;27.90;50.50;;;28.76;37.48;95387.56;5066412;28;20962;-56
2022/05/16 08:39:55;;;;;;;5.03;3.77;;;28.30;49.40;;;29.20;36.41;95387.81;5066851;28;20474;-56
2022/05/16 08:42:27;;;;;;;6.00;3.07;;;28.50;48.30;;;29.38;35.73;95384.06;5067284;28;20529;-56
2022/05/16 08:44:59;;;;;;;5.53;4.10;;;28.70;47.30;;;29.53;34.57;95378.09;5066553;28;20442;-54
2022/05/16 08:47:41;;;;;;;7.70;4.07;;;28.90;46.10;;;29.62;33.11;95382.03;5066660;28;20446;-55
2022/05/16 08:50:13;;;;;;;5.40;2.90;;;29.00;45.80;;;29.66;32.94;95380.44;5065565;28;20439;-56
2022/05/16 08:52:46;;;;;;;5.00;2.80;;;29.10;44.50;;;29.72;33.68;95384.06;5066176;28;20449;-55
2022/05/16 08:55:23;;;;;;;4.40;4.00;;;29.20;45.00;;;29.79;33.17;95379.31;5065717;28;20540;-55
2022/05/16 08:57:53;;;;;;;4.07;3.30;;;29.20;45.40;;;29.93;34.30;95382.50;5065741;28;20866;-56
2022/05/16 09:00:32;;;;;;;2.80;2.60;;;29.30;46.10;;;30.08;32.53;95378.38;5062463;28;20599;-56
2022/05/16 09:02:59;;;;;;;14.10;4.37;;;29.50;45.20;;;30.15;34.35;95381.72;5063754;28;20461;-54
2022/05/16 09:05:30;;;;;;;8.30;3.90;;;29.50;44.80;;;30.18;34.15;95383.94;5066092;28;20310;-54
2022/05/16 09:07:58;;;;;;;12.70;5.40;;;29.60;44.90;;;30.22;32.67;95376.91;5066173;28;20227;-56
2022/05/16 09:10:28;;;;;;;7.43;3.13;;;29.70;43.30;;;30.29;31.11;95382.19;5065767;28;20285;-57
2022/05/16 09:13:02;;;;;;;7.03;2.33;;;29.70;42.10;;;30.19;31.35;95374.72;5066104;28;20458;-56
2022/05/16 09:15:38;;;;;;;3.40;2.40;;;29.70;41.10;;;30.04;30.18;95375.34;5065122;28;20228;-55
2022/05/16 09:18:22;;;;;;;8.30;2.50;;;29.50;40.00;;;30.01;29.79;95373.13;5062547;28;20481;-56
2022/05/16 09:20:58;;;;;;;3.10;2.60;;;29.50;39.80;;;30.03;30.88;95369.06;5066465;28;20327;-56
2022/05/16 09:23:55;;;;;;;4.07;2.60;;;29.50;40.80;;;30.09;28.55;95359.13;5065871;28;20457;-56
2022/05/16 09:26:41;;;;;;;6.43;2.67;;;29.50;38.80;;;30.18;26.49;95364.94;5065048;28;20478;-57
2022/05/16 09:29:22;;;;;;;2.63;2.53;;;29.60;36.30;;;30.32;28.55;95366.22;5066030;28;20453;-56
2022/05/16 09:31:50;;;;;;;5.53;2.63;;;29.70;37.80;;;30.39;29.32;95358.72;5064284;28;20224;-55
2022/05/16 09:34:17;;;;;;;2.33;2.13;;;29.80;37.30;;;30.42;29.19;95360.09;5065534;28;20230;-57
2022/05/16 09:36:48;;;;;;;3.43;1.97;;;29.80;38.20;;;30.45;28.80;95350.66;5065599;28;20228;-54
2022/05/16 09:39:20;;;;;;;5.37;2.27;;;29.90;37.30;;;30.42;28.33;95348.44;5065657;28;20220;-57
2022/05/16 09:41:55;;;;;;;4.30;2.20;;;29.90;37.40;;;30.37;27.18;95346.44;5065460;28;20224;-55
2022/05/16 09:44:26;;;;;;;8.20;2.63;;;29.80;36.20;;;30.41;28.27;95346.78;5064472;28;20204;-57
2022/05/16 09:47:23;;;;;;;2.63;1.83;;;29.80;36.70;;;30.48;27.62;95340.09;5064979;28;20770;-56
2022/05/16 09:50:15;;;;;;;6.00;2.00;;;29.90;37.30;;;30.53;27.52;95340.13;5065233;28;20566;-56
2022/05/16 09:52:46;;;;;;;5.33;2.60;;;29.90;37.00;;;30.60;29.12;95339.97;5065277;28;20249;-56
2022/05/16 09:55:26;;;;;;;2.30;1.60;;;30.00;37.30;;;30.64;27.72;95341.06;5065086;28;20577;-56
2022/05/16 09:57:57;;;;;;;8.07;2.50;;;30.10;36.80;;;30.67;28.49;95329.69;5063496;28;20211;-55
2022/05/16 10:00:33;;;;;;;6.93;2.10;;;30.10;37.10;;;30.72;28.26;95332.50;5064134;28;20270;-57
2022/05/16 10:03:14;;;;;;;3.83;1.93;;;30.10;36.10;;;30.79;28.30;95334.19;5063401;28;20199;-55
2022/05/16 10:05:45;;;;;;;2.97;1.90;;;30.20;36.70;;;30.78;27.87;95327.91;5063845;28;20327;-56
2022/05/16 10:08:17;;;;;;;4.20;2.20;;;30.20;35.80;;;30.68;27.21;95317.78;5065323;28;20250;-56
2022/05/16 10:10:47;;;;;;;7.20;2.50;;;30.20;35.00;;;30.65;28.10;95314.75;5065439;28;20319;-56
2022/05/16 10:13:18;;;;;;;6.97;2.57;;;30.10;36.30;;;30.68;28.39;95306.91;5065333;28;20812;-56
2022/05/16 10:15:46;;;;;;;1.87;1.77;;;30.10;36.50;;;30.71;28.24;95303.69;5065236;28;20232;-56
2022/05/16 10:18:17;;;;;;;3.00;2.10;;;30.10;36.10;;;30.68;27.62;95303.38;5064724;28;20311;-55
2022/05/16 10:20:47;;;;;;;6.20;2.63;;;30.10;35.50;;;30.69;27.85;95299.56;5065588;28;20234;-56
2022/05/16 10:23:19;;;;;;;8.63;2.03;;;30.10;35.70;;;30.68;27.58;95298.75;5065284;28;20219;-58
2022/05/16 10:25:48;;;;;;;9.17;2.13;;;30.10;35.80;;;30.66;27.08;95298.22;5062213;28;20255;-55
2022/05/16 10:28:18;;;;;;;4.30;2.20;;;30.10;35.70;;;30.67;26.72;95291.69;5061770;28;20287;-55
2022/05/16 10:33:32;;;;;;;2.73;1.90;;;30.10;36.00;;;30.67;26.37;95280.81;5062027;28;20528;-57
2022/05/16 10:36:04;;;;;;;4.03;1.80;;;30.10;34.10;;;30.65;27.14;95276.75;5062867;28;20221;-56
2022/05/16 10:38:39;;;;;;;1.63;1.50;;;30.10;34.90;;;30.61;26.08;95273.69;5057309;28;20216;-57
2022/05/16 10:41:11;;;;;;;5.90;1.63;;;30.00;34.70;;;30.51;26.94;95270.91;5061447;28;20215;-58
2022/05/16 10:43:49;;;;;;;3.80;2.23;;;30.00;34.70;;;30.44;26.93;95276.50;5060219;28;20192;-58
2022/05/16 10:46:20;;;;;;;11.10;2.50;;;29.90;35.40;;;30.35;27.92;95275.28;5063332;28;20670;-57
2022/05/16 10:48:51;;;;;;;2.63;2.43;;;29.80;35.30;;;30.26;27.14;95276.84;5064373;28;20200;-56
2022/05/16 10:51:24;;;;;;;7.30;2.43;;;29.70;35.30;;;30.21;27.64;95274.91;5064338;28;20549;-57
2022/05/16 10:54:00;;;;;;;4.90;1.73;;;29.70;35.40;;;30.21;27.80;95267.56;5061207;28;20742;-56